sensor_id;sensor_type;location;lat;lon;timestamp;P1;durP1;ratioP1;P2;durP2;ratioP2
12224;SDS011;6175;50.956;11.064;2024-01-11T00:02:16;49.60;;;31.10;;
12224;SDS011;6175;50.956;11.064;2024-01-11T00:04:43;55.70;;;32.57;;
12224;SDS011;6175;50.956;11.064;2024-01-11T00:07:11;56.93;;;31.77;;
12224;SDS011;6175;50.956;11.064;2024-01-11T00:09:39;54.57;;;31.80;;
12224;SDS011;6175;50.956;11.064;2024-01-11T00:12:06;55.50;;;31.37;;
12224;SDS011;6175;50.956;11.064;2024-01-11T00:14:33;57.60;;;32.10;;
12224;SDS011;6175;50.956;11.064;2024-01-11T00:17:00;58.93;;;35.03;;
12224;SDS011;6175;50.956;11.064;2024-01-11T00:19:27;57.03;;;31.87;;
12224;SDS011;6175;50.956;11.064;2024-01-11T00:21:54;56.80;;;32.20;;
12224;SDS011;6175;50.956;11.064;2024-01-11T00:24:23;58.20;;;33.40;;
12224;SDS011;6175;50.956;11.064;2024-01-11T00:26:50;64.07;;;33.50;;
12224;SDS011;6175;50.956;11.064;2024-01-11T00:29:17;64.37;;;34.90;;
12224;SDS011;6175;50.956;11.064;2024-01-11T00:31:44;64.03;;;34.27;;
12224;SDS011;6175;50.956;11.064;2024-01-11T00:34:11;55.07;;;31.83;;
12224;SDS011;6175;50.956;11.064;2024-01-11T00:36:38;58.03;;;32.70;;
12224;SDS011;6175;50.956;11.064;2024-01-11T00:39:05;59.67;;;33.33;;
12224;SDS011;6175;50.956;11.064;2024-01-11T00:41:34;61.00;;;36.97;;
12224;SDS011;6175;50.956;11.064;2024-01-11T00:44:01;66.27;;;39.13;;
12224;SDS011;6175;50.956;11.064;2024-01-11T00:46:28;62.10;;;36.53;;
12224;SDS011;6175;50.956;11.064;2024-01-11T00:48:55;55.93;;;33.03;;
12224;SDS011;6175;50.956;11.064;2024-01-11T00:51:22;59.40;;;35.07;;
12224;SDS011;6175;50.956;11.064;2024-01-11T00:53:49;54.27;;;32.57;;
12224;SDS011;6175;50.956;11.064;2024-01-11T00:56:16;58.27;;;33.33;;
12224;SDS011;6175;50.956;11.064;2024-01-11T00:58:45;55.17;;;32.27;;
12224;SDS011;6175;50.956;11.064;2024-01-11T01:01:12;52.47;;;31.53;;
12224;SDS011;6175;50.956;11.064;2024-01-11T01:03:39;53.13;;;30.63;;
12224;SDS011;6175;50.956;11.064;2024-01-11T01:06:06;53.23;;;30.93;;
12224;SDS011;6175;50.956;11.064;2024-01-11T01:08:33;57.60;;;32.73;;
12224;SDS011;6175;50.956;11.064;2024-01-11T01:11:00;57.37;;;30.90;;
12224;SDS011;6175;50.956;11.064;2024-01-11T01:13:27;57.13;;;32.90;;
12224;SDS011;6175;50.956;11.064;2024-01-11T01:15:56;61.03;;;35.27;;
12224;SDS011;6175;50.956;11.064;2024-01-11T01:18:23;58.10;;;32.60;;
12224;SDS011;6175;50.956;11.064;2024-01-11T01:20:50;58.27;;;33.93;;
12224;SDS011;6175;50.956;11.064;2024-01-11T01:23:17;61.57;;;34.23;;
12224;SDS011;6175;50.956;11.064;2024-01-11T01:25:44;55.80;;;30.17;;
12224;SDS011;6175;50.956;11.064;2024-01-11T01:28:11;57.73;;;33.77;;
12224;SDS011;6175;50.956;11.064;2024-01-11T01:30:38;61.97;;;33.53;;
12224;SDS011;6175;50.956;11.064;2024-01-11T01:33:06;57.93;;;32.93;;
12224;SDS011;6175;50.956;11.064;2024-01-11T01:35:33;66.57;;;35.63;;
12224;SDS011;6175;50.956;11.064;2024-01-11T01:38:01;64.93;;;35.53;;
12224;SDS011;6175;50.956;11.064;2024-01-11T01:40:29;61.60;;;33.83;;
12224;SDS011;6175;50.956;11.064;2024-01-11T01:42:57;55.87;;;32.27;;
12224;SDS011;6175;50.956;11.064;2024-01-11T01:45:24;62.47;;;32.33;;
12224;SDS011;6175;50.956;11.064;2024-01-11T01:47:52;68.47;;;36.83;;
12224;SDS011;6175;50.956;11.064;2024-01-11T01:50:20;56.00;;;33.63;;
12224;SDS011;6175;50.956;11.064;2024-01-11T01:52:48;55.17;;;32.10;;
12224;SDS011;6175;50.956;11.064;2024-01-11T01:55:16;65.13;;;36.10;;
12224;SDS011;6175;50.956;11.064;2024-01-11T01:57:44;62.63;;;37.03;;
12224;SDS011;6175;50.956;11.064;2024-01-11T02:00:13;71.20;;;39.60;;
12224;SDS011;6175;50.956;11.064;2024-01-11T02:02:40;59.77;;;35.00;;
12224;SDS011;6175;50.956;11.064;2024-01-11T02:05:09;69.33;;;37.50;;
12224;SDS011;6175;50.956;11.064;2024-01-11T02:07:38;63.47;;;35.90;;
12224;SDS011;6175;50.956;11.064;2024-01-11T02:10:06;60.33;;;32.90;;
12224;SDS011;6175;50.956;11.064;2024-01-11T02:12:34;55.43;;;31.43;;
12224;SDS011;6175;50.956;11.064;2024-01-11T02:15:02;55.67;;;32.27;;
12224;SDS011;6175;50.956;11.064;2024-01-11T02:17:29;60.97;;;36.03;;
12224;SDS011;6175;50.956;11.064;2024-01-11T02:19:57;66.23;;;34.67;;
12224;SDS011;6175;50.956;11.064;2024-01-11T02:22:24;55.43;;;31.00;;
12224;SDS011;6175;50.956;11.064;2024-01-11T02:24:54;56.37;;;33.53;;
12224;SDS011;6175;50.956;11.064;2024-01-11T02:27:22;68.43;;;38.57;;
12224;SDS011;6175;50.956;11.064;2024-01-11T02:29:49;70.87;;;37.77;;
12224;SDS011;6175;50.956;11.064;2024-01-11T02:32:16;67.10;;;36.97;;
12224;SDS011;6175;50.956;11.064;2024-01-11T02:34:44;64.27;;;37.87;;
12224;SDS011;6175;50.956;11.064;2024-01-11T02:37:11;65.63;;;35.63;;
12224;SDS011;6175;50.956;11.064;2024-01-11T02:39:38;53.67;;;30.93;;
12224;SDS011;6175;50.956;11.064;2024-01-11T02:42:07;51.13;;;31.93;;
12224;SDS011;6175;50.956;11.064;2024-01-11T02:44:34;52.93;;;29.30;;
12224;SDS011;6175;50.956;11.064;2024-01-11T02:47:02;59.40;;;32.77;;
12224;SDS011;6175;50.956;11.064;2024-01-11T02:49:29;56.70;;;34.47;;
12224;SDS011;6175;50.956;11.064;2024-01-11T02:51:56;62.87;;;34.67;;
12224;SDS011;6175;50.956;11.064;2024-01-11T02:54:23;62.80;;;35.07;;
12224;SDS011;6175;50.956;11.064;2024-01-11T02:56:50;58.33;;;33.53;;
12224;SDS011;6175;50.956;11.064;2024-01-11T02:59:18;53.43;;;31.47;;
12224;SDS011;6175;50.956;11.064;2024-01-11T03:01:46;59.10;;;33.50;;
12224;SDS011;6175;50.956;11.064;2024-01-11T03:04:13;60.10;;;34.33;;
12224;SDS011;6175;50.956;11.064;2024-01-11T03:06:40;52.93;;;31.10;;
12224;SDS011;6175;50.956;11.064;2024-01-11T03:09:07;61.47;;;34.67;;
12224;SDS011;6175;50.956;11.064;2024-01-11T03:11:34;54.47;;;31.57;;
12224;SDS011;6175;50.956;11.064;2024-01-11T03:14:02;61.00;;;32.63;;
12224;SDS011;6175;50.956;11.064;2024-01-11T03:16:31;57.10;;;31.10;;
12224;SDS011;6175;50.956;11.064;2024-01-11T03:18:58;56.67;;;33.80;;
12224;SDS011;6175;50.956;11.064;2024-01-11T03:21:26;64.43;;;35.47;;
12224;SDS011;6175;50.956;11.064;2024-01-11T03:23:53;55.73;;;31.17;;
12224;SDS011;6175;50.956;11.064;2024-01-11T03:26:20;59.03;;;32.10;;
12224;SDS011;6175;50.956;11.064;2024-01-11T03:28:47;56.00;;;31.93;;
12224;SDS011;6175;50.956;11.064;2024-01-11T03:31:14;52.00;;;30.90;;
12224;SDS011;6175;50.956;11.064;2024-01-11T03:33:42;51.53;;;30.67;;
12224;SDS011;6175;50.956;11.064;2024-01-11T03:36:10;50.63;;;30.57;;
12224;SDS011;6175;50.956;11.064;2024-01-11T03:38:37;56.33;;;32.23;;
12224;SDS011;6175;50.956;11.064;2024-01-11T03:41:07;55.57;;;32.87;;
12224;SDS011;6175;50.956;11.064;2024-01-11T03:43:34;54.77;;;32.00;;
12224;SDS011;6175;50.956;11.064;2024-01-11T03:46:01;54.63;;;32.47;;
12224;SDS011;6175;50.956;11.064;2024-01-11T03:48:28;55.73;;;32.60;;
12224;SDS011;6175;50.956;11.064;2024-01-11T03:50:56;52.47;;;30.53;;
12224;SDS011;6175;50.956;11.064;2024-01-11T03:53:23;54.70;;;31.60;;
12224;SDS011;6175;50.956;11.064;2024-01-11T03:55:50;54.00;;;31.23;;
12224;SDS011;6175;50.956;11.064;2024-01-11T03:58:17;61.30;;;35.43;;
12224;SDS011;6175;50.956;11.064;2024-01-11T04:00:44;60.30;;;35.23;;
12224;SDS011;6175;50.956;11.064;2024-01-11T04:03:11;57.67;;;33.47;;
12224;SDS011;6175;50.956;11.064;2024-01-11T04:05:39;52.90;;;31.10;;
12224;SDS011;6175;50.956;11.064;2024-01-11T04:08:07;59.00;;;34.20;;
12224;SDS011;6175;50.956;11.064;2024-01-11T04:10:35;55.90;;;32.50;;
12224;SDS011;6175;50.956;11.064;2024-01-11T04:13:04;60.17;;;35.17;;
12224;SDS011;6175;50.956;11.064;2024-01-11T04:15:33;59.10;;;33.60;;
12224;SDS011;6175;50.956;11.064;2024-01-11T04:18:00;57.83;;;33.27;;
12224;SDS011;6175;50.956;11.064;2024-01-11T04:20:27;55.03;;;33.30;;
12224;SDS011;6175;50.956;11.064;2024-01-11T04:22:54;55.37;;;33.57;;
12224;SDS011;6175;50.956;11.064;2024-01-11T04:25:22;59.83;;;32.50;;
12224;SDS011;6175;50.956;11.064;2024-01-11T04:27:49;62.37;;;34.97;;
12224;SDS011;6175;50.956;11.064;2024-01-11T04:30:16;59.10;;;34.57;;
12224;SDS011;6175;50.956;11.064;2024-01-11T04:32:43;57.13;;;33.20;;
12224;SDS011;6175;50.956;11.064;2024-01-11T04:35:10;57.43;;;32.70;;
12224;SDS011;6175;50.956;11.064;2024-01-11T04:37:38;61.27;;;36.60;;
12224;SDS011;6175;50.956;11.064;2024-01-11T04:40:06;63.60;;;35.73;;
12224;SDS011;6175;50.956;11.064;2024-01-11T04:42:35;69.27;;;38.87;;
12224;SDS011;6175;50.956;11.064;2024-01-11T04:45:02;68.23;;;39.33;;
12224;SDS011;6175;50.956;11.064;2024-01-11T04:47:30;69.03;;;37.47;;
12224;SDS011;6175;50.956;11.064;2024-01-11T04:49:57;71.07;;;39.27;;
12224;SDS011;6175;50.956;11.064;2024-01-11T04:52:24;71.53;;;40.00;;
12224;SDS011;6175;50.956;11.064;2024-01-11T04:54:51;68.70;;;36.37;;
12224;SDS011;6175;50.956;11.064;2024-01-11T04:57:18;63.93;;;37.03;;
12224;SDS011;6175;50.956;11.064;2024-01-11T04:59:47;73.93;;;42.27;;
12224;SDS011;6175;50.956;11.064;2024-01-11T05:02:14;63.87;;;36.97;;
12224;SDS011;6175;50.956;11.064;2024-01-11T05:04:41;63.23;;;35.47;;
12224;SDS011;6175;50.956;11.064;2024-01-11T05:07:08;76.70;;;38.17;;
12224;SDS011;6175;50.956;11.064;2024-01-11T05:09:35;74.70;;;38.73;;
12224;SDS011;6175;50.956;11.064;2024-01-11T05:12:02;62.37;;;35.47;;
12224;SDS011;6175;50.956;11.064;2024-01-11T05:14:30;63.07;;;36.60;;
12224;SDS011;6175;50.956;11.064;2024-01-11T05:16:58;62.97;;;36.07;;
12224;SDS011;6175;50.956;11.064;2024-01-11T05:19:25;59.30;;;33.60;;
12224;SDS011;6175;50.956;11.064;2024-01-11T05:21:52;56.23;;;33.70;;
12224;SDS011;6175;50.956;11.064;2024-01-11T05:24:19;54.63;;;32.30;;
12224;SDS011;6175;50.956;11.064;2024-01-11T05:26:47;63.40;;;34.10;;
12224;SDS011;6175;50.956;11.064;2024-01-11T05:29:14;58.13;;;34.27;;
12224;SDS011;6175;50.956;11.064;2024-01-11T05:31:41;60.37;;;33.50;;
12224;SDS011;6175;50.956;11.064;2024-01-11T05:34:09;63.80;;;35.53;;
12224;SDS011;6175;50.956;11.064;2024-01-11T05:36:37;68.50;;;36.00;;
12224;SDS011;6175;50.956;11.064;2024-01-11T05:39:05;71.57;;;39.00;;
12224;SDS011;6175;50.956;11.064;2024-01-11T05:41:32;63.97;;;36.43;;
12224;SDS011;6175;50.956;11.064;2024-01-11T05:43:59;55.77;;;33.20;;
12224;SDS011;6175;50.956;11.064;2024-01-11T05:46:26;61.60;;;34.70;;
12224;SDS011;6175;50.956;11.064;2024-01-11T05:48:53;58.10;;;33.50;;
12224;SDS011;6175;50.956;11.064;2024-01-11T05:51:22;60.33;;;33.27;;
12224;SDS011;6175;50.956;11.064;2024-01-11T05:53:49;55.10;;;32.03;;
12224;SDS011;6175;50.956;11.064;2024-01-11T05:56:16;57.83;;;32.40;;
12224;SDS011;6175;50.956;11.064;2024-01-11T05:58:45;57.17;;;33.53;;
12224;SDS011;6175;50.956;11.064;2024-01-11T06:01:12;54.53;;;31.27;;
12224;SDS011;6175;50.956;11.064;2024-01-11T06:03:39;58.13;;;34.30;;
12224;SDS011;6175;50.956;11.064;2024-01-11T06:06:06;57.90;;;33.47;;
12224;SDS011;6175;50.956;11.064;2024-01-11T06:08:35;58.90;;;33.63;;
12224;SDS011;6175;50.956;11.064;2024-01-11T06:11:02;60.27;;;35.67;;
12224;SDS011;6175;50.956;11.064;2024-01-11T06:13:30;65.80;;;36.30;;
12224;SDS011;6175;50.956;11.064;2024-01-11T06:15:57;63.43;;;36.67;;
12224;SDS011;6175;50.956;11.064;2024-01-11T06:18:24;72.63;;;37.93;;
12224;SDS011;6175;50.956;11.064;2024-01-11T06:20:51;70.13;;;36.83;;
12224;SDS011;6175;50.956;11.064;2024-01-11T06:23:18;67.33;;;38.27;;
12224;SDS011;6175;50.956;11.064;2024-01-11T06:25:46;63.93;;;37.17;;
12224;SDS011;6175;50.956;11.064;2024-01-11T06:28:14;64.10;;;36.47;;
12224;SDS011;6175;50.956;11.064;2024-01-11T06:30:41;64.93;;;35.77;;
12224;SDS011;6175;50.956;11.064;2024-01-11T06:33:09;67.90;;;37.13;;
12224;SDS011;6175;50.956;11.064;2024-01-11T06:35:36;74.97;;;38.07;;
12224;SDS011;6175;50.956;11.064;2024-01-11T06:38:03;68.93;;;37.70;;
12224;SDS011;6175;50.956;11.064;2024-01-11T06:40:30;68.03;;;36.87;;
12224;SDS011;6175;50.956;11.064;2024-01-11T06:42:58;67.60;;;36.07;;
12224;SDS011;6175;50.956;11.064;2024-01-11T06:45:25;66.30;;;37.37;;
12224;SDS011;6175;50.956;11.064;2024-01-11T06:47:52;66.03;;;36.67;;
12224;SDS011;6175;50.956;11.064;2024-01-11T06:50:20;63.70;;;37.17;;
12224;SDS011;6175;50.956;11.064;2024-01-11T06:52:47;61.00;;;34.17;;
12224;SDS011;6175;50.956;11.064;2024-01-11T06:55:14;56.57;;;33.70;;
12224;SDS011;6175;50.956;11.064;2024-01-11T06:57:41;58.47;;;34.37;;
12224;SDS011;6175;50.956;11.064;2024-01-11T07:00:10;66.47;;;36.93;;
12224;SDS011;6175;50.956;11.064;2024-01-11T07:02:38;54.10;;;32.93;;
12224;SDS011;6175;50.956;11.064;2024-01-11T07:05:06;52.23;;;31.33;;
12224;SDS011;6175;50.956;11.064;2024-01-11T07:07:33;52.13;;;29.90;;
12224;SDS011;6175;50.956;11.064;2024-01-11T07:10:00;48.07;;;29.07;;
12224;SDS011;6175;50.956;11.064;2024-01-11T07:12:30;59.13;;;33.47;;
12224;SDS011;6175;50.956;11.064;2024-01-11T07:14:57;60.20;;;33.90;;
12224;SDS011;6175;50.956;11.064;2024-01-11T07:17:26;54.43;;;32.43;;
12224;SDS011;6175;50.956;11.064;2024-01-11T07:19:53;59.87;;;33.50;;
12224;SDS011;6175;50.956;11.064;2024-01-11T07:22:20;57.97;;;31.77;;
12224;SDS011;6175;50.956;11.064;2024-01-11T07:24:47;57.17;;;31.97;;
12224;SDS011;6175;50.956;11.064;2024-01-11T07:27:14;58.13;;;33.33;;
12224;SDS011;6175;50.956;11.064;2024-01-11T07:29:41;53.17;;;32.77;;
12224;SDS011;6175;50.956;11.064;2024-01-11T07:32:08;52.23;;;31.83;;
12224;SDS011;6175;50.956;11.064;2024-01-11T07:34:38;53.53;;;30.70;;
12224;SDS011;6175;50.956;11.064;2024-01-11T07:37:05;60.13;;;32.00;;
12224;SDS011;6175;50.956;11.064;2024-01-11T07:39:32;57.03;;;32.33;;
12224;SDS011;6175;50.956;11.064;2024-01-11T07:42:01;54.97;;;32.37;;
12224;SDS011;6175;50.956;11.064;2024-01-11T07:44:29;53.47;;;31.57;;
12224;SDS011;6175;50.956;11.064;2024-01-11T07:46:56;58.07;;;31.67;;
12224;SDS011;6175;50.956;11.064;2024-01-11T07:49:23;51.20;;;31.10;;
12224;SDS011;6175;50.956;11.064;2024-01-11T07:51:51;59.40;;;32.80;;
12224;SDS011;6175;50.956;11.064;2024-01-11T07:54:19;48.70;;;30.13;;
12224;SDS011;6175;50.956;11.064;2024-01-11T07:56:46;56.63;;;33.27;;
12224;SDS011;6175;50.956;11.064;2024-01-11T07:59:13;65.63;;;34.33;;
12224;SDS011;6175;50.956;11.064;2024-01-11T08:01:40;65.73;;;36.07;;
12224;SDS011;6175;50.956;11.064;2024-01-11T08:04:07;63.07;;;37.40;;
12224;SDS011;6175;50.956;11.064;2024-01-11T08:06:34;67.80;;;37.60;;
12224;SDS011;6175;50.956;11.064;2024-01-11T08:09:03;64.50;;;34.23;;
12224;SDS011;6175;50.956;11.064;2024-01-11T08:11:30;63.13;;;35.03;;
12224;SDS011;6175;50.956;11.064;2024-01-11T08:13:58;58.50;;;32.20;;
12224;SDS011;6175;50.956;11.064;2024-01-11T08:16:25;62.23;;;34.90;;
12224;SDS011;6175;50.956;11.064;2024-01-11T08:18:53;63.83;;;35.37;;
12224;SDS011;6175;50.956;11.064;2024-01-11T08:21:20;68.03;;;36.23;;
12224;SDS011;6175;50.956;11.064;2024-01-11T08:23:47;70.70;;;38.37;;
12224;SDS011;6175;50.956;11.064;2024-01-11T08:26:15;62.87;;;36.40;;
12224;SDS011;6175;50.956;11.064;2024-01-11T08:28:44;65.00;;;36.83;;
12224;SDS011;6175;50.956;11.064;2024-01-11T08:31:11;57.27;;;32.97;;
12224;SDS011;6175;50.956;11.064;2024-01-11T08:33:38;59.40;;;33.37;;
12224;SDS011;6175;50.956;11.064;2024-01-11T08:36:06;59.27;;;32.10;;
12224;SDS011;6175;50.956;11.064;2024-01-11T08:38:33;55.33;;;31.67;;
12224;SDS011;6175;50.956;11.064;2024-01-11T08:41:01;62.17;;;33.37;;
12224;SDS011;6175;50.956;11.064;2024-01-11T08:43:29;62.13;;;33.60;;
12224;SDS011;6175;50.956;11.064;2024-01-11T08:45:56;57.40;;;31.33;;
12224;SDS011;6175;50.956;11.064;2024-01-11T08:48:24;56.67;;;31.27;;
12224;SDS011;6175;50.956;11.064;2024-01-11T08:50:51;55.23;;;32.30;;
12224;SDS011;6175;50.956;11.064;2024-01-11T08:53:18;56.97;;;33.10;;
12224;SDS011;6175;50.956;11.064;2024-01-11T08:55:45;64.93;;;34.53;;
12224;SDS011;6175;50.956;11.064;2024-01-11T08:58:12;59.37;;;32.60;;
12224;SDS011;6175;50.956;11.064;2024-01-11T09:00:41;64.90;;;34.17;;
12224;SDS011;6175;50.956;11.064;2024-01-11T09:03:09;60.30;;;34.87;;
12224;SDS011;6175;50.956;11.064;2024-01-11T09:05:36;59.53;;;34.13;;
12224;SDS011;6175;50.956;11.064;2024-01-11T09:08:05;61.93;;;33.97;;
12224;SDS011;6175;50.956;11.064;2024-01-11T09:10:32;59.27;;;33.43;;
12224;SDS011;6175;50.956;11.064;2024-01-11T09:12:59;55.17;;;31.47;;
12224;SDS011;6175;50.956;11.064;2024-01-11T09:15:27;57.67;;;32.33;;
12224;SDS011;6175;50.956;11.064;2024-01-11T09:17:55;62.17;;;33.27;;
12224;SDS011;6175;50.956;11.064;2024-01-11T09:20:22;62.13;;;34.27;;
12224;SDS011;6175;50.956;11.064;2024-01-11T09:22:49;63.33;;;35.57;;
12224;SDS011;6175;50.956;11.064;2024-01-11T09:25:17;62.80;;;34.73;;
12224;SDS011;6175;50.956;11.064;2024-01-11T09:27:44;62.40;;;33.67;;
12224;SDS011;6175;50.956;11.064;2024-01-11T09:30:12;55.67;;;31.57;;
12224;SDS011;6175;50.956;11.064;2024-01-11T09:32:39;56.00;;;32.43;;
12224;SDS011;6175;50.956;11.064;2024-01-11T09:35:08;62.67;;;34.53;;
12224;SDS011;6175;50.956;11.064;2024-01-11T09:37:35;61.10;;;34.43;;
12224;SDS011;6175;50.956;11.064;2024-01-11T09:40:03;55.50;;;32.73;;
12224;SDS011;6175;50.956;11.064;2024-01-11T09:42:35;53.57;;;32.63;;
12224;SDS011;6175;50.956;11.064;2024-01-11T09:45:02;59.63;;;33.77;;
12224;SDS011;6175;50.956;11.064;2024-01-11T09:47:33;58.03;;;33.17;;
12224;SDS011;6175;50.956;11.064;2024-01-11T09:50:02;61.00;;;34.70;;
12224;SDS011;6175;50.956;11.064;2024-01-11T09:52:31;56.77;;;32.40;;
12224;SDS011;6175;50.956;11.064;2024-01-11T09:54:58;51.87;;;31.23;;
12224;SDS011;6175;50.956;11.064;2024-01-11T09:57:26;61.47;;;34.17;;
12224;SDS011;6175;50.956;11.064;2024-01-11T09:59:56;59.47;;;34.67;;
12224;SDS011;6175;50.956;11.064;2024-01-11T10:02:24;59.83;;;33.80;;
12224;SDS011;6175;50.956;11.064;2024-01-11T10:04:51;64.47;;;34.73;;
12224;SDS011;6175;50.956;11.064;2024-01-11T10:07:19;57.57;;;34.00;;
12224;SDS011;6175;50.956;11.064;2024-01-11T10:09:51;58.77;;;33.77;;
12224;SDS011;6175;50.956;11.064;2024-01-11T10:12:18;56.47;;;32.70;;
12224;SDS011;6175;50.956;11.064;2024-01-11T10:14:48;61.40;;;35.90;;
12224;SDS011;6175;50.956;11.064;2024-01-11T10:17:15;62.17;;;35.80;;
12224;SDS011;6175;50.956;11.064;2024-01-11T10:19:42;58.57;;;33.97;;
12224;SDS011;6175;50.956;11.064;2024-01-11T10:22:09;60.40;;;34.80;;
12224;SDS011;6175;50.956;11.064;2024-01-11T10:24:37;57.53;;;33.60;;
12224;SDS011;6175;50.956;11.064;2024-01-11T10:27:07;58.67;;;34.73;;
12224;SDS011;6175;50.956;11.064;2024-01-11T10:29:35;57.37;;;33.63;;
12224;SDS011;6175;50.956;11.064;2024-01-11T10:32:03;63.87;;;33.53;;
12224;SDS011;6175;50.956;11.064;2024-01-11T10:34:30;54.40;;;32.93;;
12224;SDS011;6175;50.956;11.064;2024-01-11T10:36:58;57.80;;;33.57;;
12224;SDS011;6175;50.956;11.064;2024-01-11T10:39:26;68.00;;;35.23;;
12224;SDS011;6175;50.956;11.064;2024-01-11T10:41:56;57.07;;;33.50;;
12224;SDS011;6175;50.956;11.064;2024-01-11T10:44:32;58.20;;;35.00;;
12224;SDS011;6175;50.956;11.064;2024-01-11T10:47:02;57.57;;;34.40;;
12224;SDS011;6175;50.956;11.064;2024-01-11T10:49:30;64.90;;;35.73;;
12224;SDS011;6175;50.956;11.064;2024-01-11T10:52:00;51.80;;;32.23;;
12224;SDS011;6175;50.956;11.064;2024-01-11T10:54:28;56.67;;;32.67;;
12224;SDS011;6175;50.956;11.064;2024-01-11T10:56:56;63.80;;;35.23;;
12224;SDS011;6175;50.956;11.064;2024-01-11T10:59:25;50.53;;;31.27;;
12224;SDS011;6175;50.956;11.064;2024-01-11T11:01:55;57.63;;;33.23;;
12224;SDS011;6175;50.956;11.064;2024-01-11T11:04:24;57.03;;;33.00;;
12224;SDS011;6175;50.956;11.064;2024-01-11T11:06:54;51.33;;;31.10;;
12224;SDS011;6175;50.956;11.064;2024-01-11T11:09:22;54.53;;;31.77;;
12224;SDS011;6175;50.956;11.064;2024-01-11T11:11:50;56.80;;;32.03;;
12224;SDS011;6175;50.956;11.064;2024-01-11T11:14:22;55.70;;;30.87;;
12224;SDS011;6175;50.956;11.064;2024-01-11T11:16:49;52.37;;;30.37;;
12224;SDS011;6175;50.956;11.064;2024-01-11T11:19:18;49.17;;;30.53;;
12224;SDS011;6175;50.956;11.064;2024-01-11T11:21:47;54.57;;;31.07;;
12224;SDS011;6175;50.956;11.064;2024-01-11T11:24:16;53.57;;;31.43;;
12224;SDS011;6175;50.956;11.064;2024-01-11T11:26:43;54.77;;;31.13;;
12224;SDS011;6175;50.956;11.064;2024-01-11T11:29:11;51.43;;;31.50;;
12224;SDS011;6175;50.956;11.064;2024-01-11T11:31:41;49.63;;;30.40;;
12224;SDS011;6175;50.956;11.064;2024-01-11T11:34:10;43.37;;;26.63;;
12224;SDS011;6175;50.956;11.064;2024-01-11T11:36:39;43.93;;;27.43;;
12224;SDS011;6175;50.956;11.064;2024-01-11T11:39:09;42.87;;;25.43;;
12224;SDS011;6175;50.956;11.064;2024-01-11T11:41:37;43.80;;;26.07;;
12224;SDS011;6175;50.956;11.064;2024-01-11T11:44:05;41.73;;;25.20;;
12224;SDS011;6175;50.956;11.064;2024-01-11T11:46:32;44.83;;;26.57;;
12224;SDS011;6175;50.956;11.064;2024-01-11T11:49:00;41.63;;;26.17;;
12224;SDS011;6175;50.956;11.064;2024-01-11T11:51:27;41.50;;;26.03;;
12224;SDS011;6175;50.956;11.064;2024-01-11T11:53:56;40.20;;;24.73;;
12224;SDS011;6175;50.956;11.064;2024-01-11T11:56:24;39.03;;;24.43;;
12224;SDS011;6175;50.956;11.064;2024-01-11T11:58:51;36.93;;;23.03;;
12224;SDS011;6175;50.956;11.064;2024-01-11T12:01:19;40.40;;;23.60;;
12224;SDS011;6175;50.956;11.064;2024-01-11T12:03:47;34.57;;;23.27;;
12224;SDS011;6175;50.956;11.064;2024-01-11T12:06:15;33.20;;;20.80;;
12224;SDS011;6175;50.956;11.064;2024-01-11T12:08:42;36.73;;;21.93;;
12224;SDS011;6175;50.956;11.064;2024-01-11T12:11:14;34.03;;;21.33;;
12224;SDS011;6175;50.956;11.064;2024-01-11T12:13:41;32.00;;;20.77;;
12224;SDS011;6175;50.956;11.064;2024-01-11T12:16:09;34.20;;;21.17;;
12224;SDS011;6175;50.956;11.064;2024-01-11T12:18:37;32.13;;;20.07;;
12224;SDS011;6175;50.956;11.064;2024-01-11T12:21:04;35.20;;;21.13;;
12224;SDS011;6175;50.956;11.064;2024-01-11T12:23:32;35.47;;;20.33;;
12224;SDS011;6175;50.956;11.064;2024-01-11T12:26:00;32.80;;;20.73;;
12224;SDS011;6175;50.956;11.064;2024-01-11T12:28:30;33.23;;;20.37;;
12224;SDS011;6175;50.956;11.064;2024-01-11T12:30:58;30.63;;;19.70;;
12224;SDS011;6175;50.956;11.064;2024-01-11T12:33:25;33.27;;;20.73;;
12224;SDS011;6175;50.956;11.064;2024-01-11T12:35:52;31.27;;;21.27;;
12224;SDS011;6175;50.956;11.064;2024-01-11T12:38:20;29.30;;;19.30;;
12224;SDS011;6175;50.956;11.064;2024-01-11T12:40:47;31.63;;;20.43;;
12224;SDS011;6175;50.956;11.064;2024-01-11T12:43:14;35.23;;;21.77;;
12224;SDS011;6175;50.956;11.064;2024-01-11T12:45:43;36.07;;;20.77;;
12224;SDS011;6175;50.956;11.064;2024-01-11T12:48:10;38.70;;;23.57;;
12224;SDS011;6175;50.956;11.064;2024-01-11T12:50:41;34.17;;;21.47;;
12224;SDS011;6175;50.956;11.064;2024-01-11T12:53:09;33.47;;;20.73;;
12224;SDS011;6175;50.956;11.064;2024-01-11T12:55:43;30.03;;;19.73;;
12224;SDS011;6175;50.956;11.064;2024-01-11T12:58:10;31.03;;;20.03;;
12224;SDS011;6175;50.956;11.064;2024-01-11T13:00:37;35.07;;;22.90;;
12224;SDS011;6175;50.956;11.064;2024-01-11T13:03:06;32.93;;;22.33;;
12224;SDS011;6175;50.956;11.064;2024-01-11T13:05:35;33.77;;;21.07;;
12224;SDS011;6175;50.956;11.064;2024-01-11T13:08:02;31.17;;;19.27;;
12224;SDS011;6175;50.956;11.064;2024-01-11T13:10:30;34.77;;;21.93;;
12224;SDS011;6175;50.956;11.064;2024-01-11T13:12:58;31.40;;;19.63;;
12224;SDS011;6175;50.956;11.064;2024-01-11T13:15:26;33.00;;;20.80;;
12224;SDS011;6175;50.956;11.064;2024-01-11T13:17:54;30.80;;;19.03;;
12224;SDS011;6175;50.956;11.064;2024-01-11T13:20:23;27.70;;;19.40;;
12224;SDS011;6175;50.956;11.064;2024-01-11T13:25:38;28.87;;;19.50;;
12224;SDS011;6175;50.956;11.064;2024-01-11T13:28:05;27.97;;;18.37;;
12224;SDS011;6175;50.956;11.064;2024-01-11T13:30:32;26.33;;;18.17;;
12224;SDS011;6175;50.956;11.064;2024-01-11T13:33:00;28.83;;;18.40;;
12224;SDS011;6175;50.956;11.064;2024-01-11T13:35:28;26.20;;;18.03;;
12224;SDS011;6175;50.956;11.064;2024-01-11T13:37:55;27.47;;;18.10;;
12224;SDS011;6175;50.956;11.064;2024-01-11T13:40:22;30.10;;;19.87;;
12224;SDS011;6175;50.956;11.064;2024-01-11T13:42:49;35.00;;;21.97;;
12224;SDS011;6175;50.956;11.064;2024-01-11T13:45:16;33.13;;;20.67;;
12224;SDS011;6175;50.956;11.064;2024-01-11T13:47:43;28.60;;;19.83;;
12224;SDS011;6175;50.956;11.064;2024-01-11T13:50:10;28.70;;;19.03;;
12224;SDS011;6175;50.956;11.064;2024-01-11T13:52:39;26.73;;;17.73;;
12224;SDS011;6175;50.956;11.064;2024-01-11T13:55:06;27.57;;;18.37;;
12224;SDS011;6175;50.956;11.064;2024-01-11T13:57:35;27.10;;;18.33;;
12224;SDS011;6175;50.956;11.064;2024-01-11T14:00:02;25.93;;;17.90;;
12224;SDS011;6175;50.956;11.064;2024-01-11T14:02:29;29.67;;;19.73;;
12224;SDS011;6175;50.956;11.064;2024-01-11T14:04:56;27.03;;;18.90;;
12224;SDS011;6175;50.956;11.064;2024-01-11T14:07:23;24.73;;;16.50;;
12224;SDS011;6175;50.956;11.064;2024-01-11T14:09:52;26.37;;;17.13;;
12224;SDS011;6175;50.956;11.064;2024-01-11T14:12:19;23.33;;;17.43;;
12224;SDS011;6175;50.956;11.064;2024-01-11T14:14:46;24.87;;;16.83;;
12224;SDS011;6175;50.956;11.064;2024-01-11T14:17:14;25.53;;;16.83;;
12224;SDS011;6175;50.956;11.064;2024-01-11T14:19:41;26.57;;;16.77;;
12224;SDS011;6175;50.956;11.064;2024-01-11T14:22:08;26.87;;;18.90;;
12224;SDS011;6175;50.956;11.064;2024-01-11T14:24:35;28.20;;;18.83;;
12224;SDS011;6175;50.956;11.064;2024-01-11T14:27:04;24.53;;;17.57;;